Time;durP1;ratioP1;P1;durP2;ratioP2;P2;SDS_P1;SDS_P2;PMS_P1;PMS_P2;Temp;Humidity;BMP_temperature;BMP_pressure;BME280_temperature;BME280_humidity;BME280_pressure;Samples;Min_cycle;Max_cycle;Signal;HPM_P1;HPM_P2
2021/09/20 00:00:17;;;;;;;13.87;9.23;;;22.10;64.50;;;;;;4897730;29;20196;-76
2021/09/20 00:02:45;;;;;;;512.27;185.10;;;22.20;64.00;;;;;;4894039;29;20189;-79
2021/09/20 00:05:13;;;;;;;118.80;40.53;;;22.20;64.30;;;;;;4901245;29;20424;-76
2021/09/20 00:07:41;;;;;;;481.77;179.50;;;22.20;64.80;;;;;;4902703;29;20189;-77
2021/09/20 00:10:10;;;;;;;29.17;13.87;;;22.50;64.50;;;;;;4906322;29;20522;-80
2021/09/20 00:12:38;;;;;;;322.67;116.07;;;22.40;64.60;;;;;;4902803;29;20678;-77
2021/09/20 00:15:07;;;;;;;24.97;11.17;;;22.40;63.00;;;;;;4901421;29;20182;-77
2021/09/20 00:17:36;;;;;;;517.67;192.20;;;22.60;63.20;;;;;;4902145;29;20196;-75
2021/09/20 00:20:08;;;;;;;347.97;123.47;;;22.50;63.40;;;;;;4902383;29;20193;-76
2021/09/20 00:22:36;;;;;;;530.27;194.87;;;22.70;62.70;;;;;;4901634;29;20597;-77
2021/09/20 00:25:05;;;;;;;520.57;195.13;;;22.60;63.20;;;;;;4907364;29;20439;-71
2021/09/20 00:27:33;;;;;;;529.50;196.03;;;23.00;63.40;;;;;;4906397;29;20201;-70
2021/09/20 00:30:01;;;;;;;478.70;179.23;;;22.80;61.60;;;;;;4909705;29;20208;-66
2021/09/20 00:32:28;;;;;;;485.43;177.87;;;23.00;60.60;;;;;;4906880;29;20475;-66
2021/09/20 00:34:56;;;;;;;16.40;6.20;;;23.00;60.20;;;;;;4908276;29;20180;-68
2021/09/20 00:37:23;;;;;;;515.43;190.03;;;23.00;60.10;;;;;;4903569;29;20241;-67
2021/09/20 00:39:51;;;;;;;344.23;124.53;;;23.20;59.60;;;;;;4899070;29;20817;-73
2021/09/20 00:42:18;;;;;;;43.93;14.57;;;23.30;58.00;;;;;;4905805;29;20544;-71
2021/09/20 00:44:45;;;;;;;346.57;127.00;;;23.10;59.70;;;;;;4901996;29;20189;-74
2021/09/20 00:47:13;;;;;;;15.13;7.60;;;23.20;59.70;;;;;;4905511;29;20173;-75
2021/09/20 00:49:42;;;;;;;508.73;188.57;;;23.40;57.90;;;;;;4901305;29;20201;-74
2021/09/20 00:52:10;;;;;;;505.03;182.27;;;23.40;56.40;;;;;;4899168;29;20189;-72
2021/09/20 00:54:37;;;;;;;36.27;13.43;;;23.70;56.80;;;;;;4897103;29;20181;-75
2021/09/20 00:57:06;;;;;;;483.03;173.07;;;23.90;57.00;;;;;;4899978;29;20311;-72
2021/09/20 00:59:33;;;;;;;506.57;186.67;;;24.10;56.40;;;;;;4905914;29;20225;-73
2021/09/20 01:02:01;;;;;;;495.27;184.27;;;24.30;56.10;;;;;;4902826;29;20189;-75
2021/09/20 01:04:28;;;;;;;507.30;184.83;;;24.40;55.10;;;;;;4900584;29;20181;-70
2021/09/20 01:06:56;;;;;;;310.00;116.30;;;24.40;54.80;;;;;;4903940;29;20189;-71
2021/09/20 01:09:25;;;;;;;505.10;183.27;;;24.20;54.60;;;;;;4904215;29;20193;-70
2021/09/20 01:11:53;;;;;;;172.20;63.63;;;24.20;54.70;;;;;;4897407;29;20253;-74
2021/09/20 01:14:21;;;;;;;11.00;6.77;;;24.30;54.60;;;;;;4899986;29;20217;-76
2021/09/20 01:16:48;;;;;;;480.47;175.87;;;24.30;55.00;;;;;;4900308;29;20260;-70
2021/09/20 01:19:16;;;;;;;27.60;12.73;;;24.40;54.40;;;;;;4901532;29;20280;-74
2021/09/20 01:21:43;;;;;;;507.47;186.93;;;24.50;55.10;;;;;;4898012;29;20229;-71
2021/09/20 01:24:11;;;;;;;97.00;36.73;;;24.50;55.50;;;;;;4899342;29;20579;-75
2021/09/20 01:26:38;;;;;;;699.17;261.33;;;24.50;55.20;;;;;;4898432;29;20186;-73
2021/09/20 01:29:07;;;;;;;38.13;12.03;;;24.70;55.40;;;;;;4900409;29;20428;-77
2021/09/20 01:31:35;;;;;;;19.47;9.43;;;24.40;55.30;;;;;;4898505;29;20553;-79
2021/09/20 01:34:03;;;;;;;312.57;110.30;;;24.60;55.60;;;;;;4900184;29;20928;-76
2021/09/20 01:36:31;;;;;;;499.60;183.13;;;24.70;55.40;;;;;;4898869;29;20304;-70
2021/09/20 01:38:58;;;;;;;498.53;184.53;;;24.60;55.90;;;;;;4894563;29;20185;-72
2021/09/20 01:41:25;;;;;;;28.80;12.23;;;24.70;55.60;;;;;;4898592;29;20201;-76
2021/09/20 01:43:53;;;;;;;503.60;189.53;;;24.90;54.90;;;;;;4902764;29;20221;-73
2021/09/20 01:46:20;;;;;;;271.33;97.37;;;25.10;55.10;;;;;;4899411;29;20192;-69
2021/09/20 01:48:47;;;;;;;320.40;116.90;;;25.00;54.40;;;;;;4902198;29;20277;-77
2021/09/20 01:51:15;;;;;;;504.60;186.97;;;25.20;55.40;;;;;;4901997;29;20193;-71
2021/09/20 01:53:42;;;;;;;333.90;128.77;;;25.30;55.20;;;;;;4898706;29;20198;-76
2021/09/20 01:56:10;;;;;;;168.67;61.33;;;25.80;54.80;;;;;;4895790;29;20228;-71
2021/09/20 01:58:37;;;;;;;8.30;7.60;;;26.30;53.20;;;;;;4902581;29;20185;-73
2021/09/20 02:01:04;;;;;;;300.73;112.50;;;26.40;50.40;;;;;;4899406;29;20193;-68
2021/09/20 02:03:31;;;;;;;504.03;194.67;;;26.80;50.20;;;;;;4898475;29;20189;-75
2021/09/20 02:05:59;;;;;;;26.97;9.03;;;26.90;47.70;;;;;;4898505;29;20197;-72
2021/09/20 02:08:26;;;;;;;504.93;195.60;;;26.80;47.40;;;;;;4903034;29;20742;-69
2021/09/20 02:10:53;;;;;;;516.67;207.43;;;26.70;47.50;;;;;;4901773;29;20583;-69
2021/09/20 02:13:21;;;;;;;326.60;122.40;;;27.00;47.40;;;;;;4898815;29;20189;-67
2021/09/20 02:15:52;;;;;;;501.97;195.10;;;26.80;47.10;;;;;;4898474;29;20253;-69
2021/09/20 02:18:19;;;;;;;341.50;131.20;;;27.00;46.90;;;;;;4896152;29;20204;-65
2021/09/20 02:20:47;;;;;;;494.83;191.20;;;26.80;46.40;;;;;;4898768;29;20648;-75
2021/09/20 02:23:14;;;;;;;124.67;43.77;;;26.70;46.80;;;;;;4901305;29;20195;-69
2021/09/20 02:25:43;;;;;;;502.50;199.53;;;27.00;47.10;;;;;;4896422;29;20193;-67
2021/09/20 02:28:12;;;;;;;511.67;199.47;;;26.90;46.70;;;;;;4898924;29;20240;-72
2021/09/20 02:30:39;;;;;;;20.97;9.47;;;27.20;46.70;;;;;;4894354;29;20209;-68
2021/09/20 02:33:07;;;;;;;483.20;193.30;;;27.30;47.10;;;;;;4899090;29;20296;-74
2021/09/20 02:35:34;;;;;;;285.57;108.60;;;27.80;47.10;;;;;;4898467;29;20231;-69
2021/09/20 02:38:02;;;;;;;494.50;198.17;;;28.10;45.80;;;;;;4900531;29;20185;-67
2021/09/20 02:40:29;;;;;;;497.93;208.07;;;27.90;46.30;;;;;;4899065;29;20592;-73
2021/09/20 02:42:56;;;;;;;513.07;210.33;;;27.80;45.60;;;;;;4895972;29;20280;-71
2021/09/20 02:45:24;;;;;;;141.47;51.30;;;27.60;46.30;;;;;;4901816;29;20197;-70
2021/09/20 02:47:51;;;;;;;518.83;213.83;;;27.70;46.00;;;;;;4901125;29;20637;-81
2021/09/20 02:50:18;;;;;;;505.53;202.80;;;27.60;45.70;;;;;;4904550;29;20193;-73
2021/09/20 02:52:46;;;;;;;503.50;198.47;;;27.70;45.30;;;;;;4905432;29;20185;-78
2021/09/20 02:55:14;;;;;;;717.67;292.27;;;27.80;45.60;;;;;;4900854;29;20181;-78
2021/09/20 02:57:42;;;;;;;502.73;206.03;;;27.60;46.10;;;;;;4907331;29;20200;-83
2021/09/20 03:00:12;;;;;;;499.33;200.27;;;27.70;45.40;;;;;;4907721;29;20549;-77
2021/09/20 03:02:39;;;;;;;495.27;195.87;;;27.60;45.40;;;;;;4904180;29;20185;-77
2021/09/20 03:05:07;;;;;;;492.87;200.07;;;27.60;45.90;;;;;;4906873;29;20197;-76
2021/09/20 03:07:34;;;;;;;323.23;129.83;;;28.00;45.80;;;;;;4897763;29;20471;-70
2021/09/20 03:10:03;;;;;;;492.63;198.10;;;28.20;46.60;;;;;;4896674;29;20197;-67
2021/09/20 03:12:30;;;;;;;697.13;282.80;;;28.30;45.40;;;;;;4907321;29;20221;-66
2021/09/20 03:14:58;;;;;;;308.60;119.53;;;28.00;45.10;;;;;;4897959;29;20201;-70
2021/09/20 03:17:25;;;;;;;497.17;205.03;;;27.80;45.40;;;;;;4898151;29;20213;-76
2021/09/20 03:19:52;;;;;;;22.37;9.07;;;28.00;44.80;;;;;;4898066;29;20520;-77
2021/09/20 03:22:20;;;;;;;486.93;204.30;;;28.30;44.90;;;;;;4898148;29;20182;-76
2021/09/20 03:24:48;;;;;;;25.40;8.60;;;28.40;44.10;;;;;;4897949;29;20204;-76
2021/09/20 03:27:15;;;;;;;471.63;195.70;;;28.60;44.70;;;;;;4898055;29;20636;-80
2021/09/20 03:29:42;;;;;;;467.50;199.10;;;28.50;44.30;;;;;;4898018;29;20551;-76
2021/09/20 03:32:10;;;;;;;454.73;185.93;;;28.20;43.70;;;;;;4897800;29;20197;-80
2021/09/20 03:34:38;;;;;;;485.27;198.90;;;27.70;43.80;;;;;;4897068;29;20652;-78
2021/09/20 03:37:05;;;;;;;324.80;135.17;;;27.50;43.80;;;;;;4899352;29;20225;-76
2021/09/20 03:39:32;;;;;;;310.33;127.13;;;27.70;44.30;;;;;;4897402;29;20174;-75
2021/09/20 03:42:00;;;;;;;29.33;12.20;;;27.80;45.10;;;;;;4897434;29;20577;-83
2021/09/20 03:44:27;;;;;;;34.80;16.43;;;28.10;43.20;;;;;;4897781;29;20247;-79
2021/09/20 03:46:54;;;;;;;19.47;9.43;;;27.50;42.70;;;;;;4897666;29;20249;-81
2021/09/20 03:49:22;;;;;;;462.23;193.70;;;27.60;42.60;;;;;;4897462;29;20193;-76
2021/09/20 03:51:49;;;;;;;301.27;119.03;;;28.00;43.10;;;;;;4897211;29;20181;-81
2021/09/20 03:54:16;;;;;;;22.80;10.03;;;28.00;42.50;;;;;;4896474;29;20277;-77
2021/09/20 03:56:44;;;;;;;463.43;189.13;;;28.00;42.80;;;;;;4897777;29;20235;-77
2021/09/20 03:59:11;;;;;;;461.87;186.97;;;28.50;42.50;;;;;;4897560;29;20268;-78
2021/09/20 04:01:39;;;;;;;328.07;138.17;;;28.70;42.10;;;;;;4897439;29;20656;-79
2021/09/20 04:04:06;;;;;;;31.40;11.67;;;28.50;41.20;;;;;;4897367;29;20174;-74
2021/09/20 04:06:33;;;;;;;479.60;198.33;;;28.80;41.40;;;;;;4897626;29;20270;-76
2021/09/20 04:09:02;;;;;;;491.87;209.70;;;28.70;41.10;;;;;;4897213;29;20204;-73
2021/09/20 04:11:30;;;;;;;472.60;197.10;;;28.60;40.80;;;;;;4897527;29;20224;-77
2021/09/20 04:13:58;;;;;;;472.93;197.00;;;28.90;41.00;;;;;;4897483;29;20185;-76
2021/09/20 04:16:25;;;;;;;22.37;9.07;;;29.10;41.10;;;;;;4897597;29;20742;-74
2021/09/20 04:18:52;;;;;;;476.47;204.17;;;28.80;40.90;;;;;;4897545;29;20174;-80
2021/09/20 04:21:20;;;;;;;491.33;208.77;;;28.80;41.50;;;;;;4897529;29;20554;-75
2021/09/20 04:23:47;;;;;;;258.00;107.00;;;28.40;42.50;;;;;;4896160;29;20201;-78
2021/09/20 04:26:15;;;;;;;20.97;8.57;;;28.70;42.00;;;;;;4897759;29;20608;-82
2021/09/20 04:28:43;;;;;;;262.43;108.70;;;29.20;42.10;;;;;;4897522;29;20265;-80
2021/09/20 04:31:10;;;;;;;24.07;13.23;;;28.90;41.00;;;;;;4897548;29;20586;-80
2021/09/20 04:33:38;;;;;;;23.17;14.47;;;29.00;40.30;;;;;;4897089;29;20216;-69
2021/09/20 04:36:05;;;;;;;23.57;10.67;;;28.90;40.70;;;;;;4897115;29;20256;-78
2021/09/20 04:38:32;;;;;;;304.93;127.43;;;29.10;41.60;;;;;;4897898;29;20177;-76
2021/09/20 04:40:59;;;;;;;21.57;9.03;;;28.90;40.80;;;;;;4896877;29;20248;-72
2021/09/20 04:43:27;;;;;;;20.57;8.43;;;28.70;40.90;;;;;;4897546;29;20535;-80
2021/09/20 04:45:54;;;;;;;24.20;13.07;;;29.20;40.60;;;;;;4904807;29;20181;-78
2021/09/20 04:48:21;;;;;;;470.47;199.10;;;29.00;40.40;;;;;;4911980;29;20547;-75
2021/09/20 04:50:52;;;;;;;304.93;126.77;;;28.90;40.90;;;;;;4901499;29;20268;-71
2021/09/20 04:53:20;;;;;;;294.80;125.13;;;29.00;41.40;;;;;;4906047;29;20501;-66
2021/09/20 04:55:47;;;;;;;309.43;133.10;;;29.40;42.00;;;;;;4899986;29;20566;-67
2021/09/20 04:58:15;;;;;;;491.80;206.33;;;29.70;40.70;;;;;;4900848;29;20209;-68
2021/09/20 05:00:42;;;;;;;488.87;205.57;;;29.20;40.80;;;;;;4901276;29;20260;-69
2021/09/20 05:03:10;;;;;;;332.00;130.50;;;28.70;41.40;;;;;;4903632;29;20600;-69
2021/09/20 05:05:38;;;;;;;531.83;230.37;;;28.60;41.60;;;;;;4893233;29;20182;-66
2021/09/20 05:08:05;;;;;;;506.13;206.60;;;28.80;41.60;;;;;;4905695;29;20284;-67
2021/09/20 05:10:32;;;;;;;728.17;309.77;;;29.20;41.80;;;;;;4898897;29;20227;-78
2021/09/20 05:13:00;;;;;;;335.23;130.07;;;29.20;41.90;;;;;;4900358;29;20221;-71
2021/09/20 05:15:27;;;;;;;333.23;133.13;;;28.90;42.30;;;;;;4911488;29;20213;-70
2021/09/20 05:17:55;;;;;;;525.17;220.47;;;29.00;42.10;;;;;;4907565;29;20196;-76
2021/09/20 05:20:22;;;;;;;497.23;200.63;;;28.80;41.90;;;;;;4900148;29;20181;-72
2021/09/20 05:22:50;;;;;;;279.43;107.90;;;29.20;42.00;;;;;;4898020;29;20185;-70
2021/09/20 05:25:18;;;;;;;507.83;210.70;;;29.40;42.00;;;;;;4898530;29;20209;-72
2021/09/20 05:27:46;;;;;;;721.77;311.67;;;29.40;41.90;;;;;;4902780;29;20193;-65
2021/09/20 05:30:14;;;;;;;503.37;205.63;;;29.30;41.80;;;;;;4899392;29;20256;-71
2021/09/20 05:32:41;;;;;;;504.60;213.93;;;29.00;42.10;;;;;;4898887;29;20189;-67
2021/09/20 05:35:11;;;;;;;720.23;301.87;;;29.10;42.20;;;;;;4899548;29;20258;-69
2021/09/20 05:37:39;;;;;;;511.87;217.03;;;28.80;42.50;;;;;;4903997;29;20190;-76
2021/09/20 05:40:07;;;;;;;23.47;8.27;;;28.80;42.30;;;;;;4911331;29;20184;-66
2021/09/20 05:42:35;;;;;;;477.03;200.57;;;29.00;42.40;;;;;;4903163;29;20225;-70
2021/09/20 05:45:03;;;;;;;500.10;211.67;;;29.20;42.50;;;;;;4903113;29;20193;-72
2021/09/20 05:47:30;;;;;;;503.40;204.80;;;28.70;42.80;;;;;;4904596;29;20188;-68
2021/09/20 05:49:58;;;;;;;507.27;208.10;;;28.10;43.60;;;;;;4891544;29;20190;-70
2021/09/20 05:52:25;;;;;;;311.60;123.33;;;28.30;43.40;;;;;;4899081;29;20193;-67
2021/09/20 05:54:52;;;;;;;725.90;307.43;;;28.20;43.60;;;;;;4897981;29;20217;-69
2021/09/20 05:57:20;;;;;;;509.13;215.27;;;28.30;43.00;;;;;;4900107;29;20248;-70
2021/09/20 05:59:47;;;;;;;506.23;209.80;;;28.30;42.10;;;;;;4901836;29;20182;-70
2021/09/20 06:02:18;;;;;;;36.90;13.30;;;28.20;42.80;;;;;;4899391;29;20212;-75
2021/09/20 06:04:46;;;;;;;703.17;295.57;;;27.80;42.60;;;;;;4914520;29;20583;-73
2021/09/20 06:07:13;;;;;;;484.57;198.80;;;28.00;42.10;;;;;;4905080;29;20189;-70
2021/09/20 06:09:41;;;;;;;316.03;126.50;;;28.00;41.60;;;;;;4898378;29;20193;-69
2021/09/20 06:12:08;;;;;;;490.67;205.00;;;28.20;41.80;;;;;;4894339;29;20320;-68
2021/09/20 06:14:35;;;;;;;332.07;128.63;;;28.20;42.10;;;;;;4902453;29;20201;-70
2021/09/20 06:17:03;;;;;;;40.17;15.37;;;28.20;41.90;;;;;;4900817;29;20684;-70
2021/09/20 06:19:30;;;;;;;499.73;203.90;;;28.20;41.60;;;;;;4897548;29;20190;-76
2021/09/20 06:21:58;;;;;;;491.70;198.63;;;28.40;41.80;;;;;;4898464;29;20197;-71
2021/09/20 06:24:25;;;;;;;508.80;203.47;;;28.20;42.10;;;;;;4898543;29;20193;-70
2021/09/20 06:26:52;;;;;;;719.50;301.53;;;27.80;42.40;;;;;;4898257;29;20221;-69
2021/09/20 06:29:20;;;;;;;501.33;201.40;;;27.80;42.30;;;;;;4902818;29;20182;-72
2021/09/20 06:31:47;;;;;;;507.10;209.27;;;27.50;42.40;;;;;;4908576;29;20264;-68
2021/09/20 06:34:14;;;;;;;509.57;206.93;;;27.40;43.70;;;;;;4898239;29;20181;-71
2021/09/20 06:36:42;;;;;;;274.43;104.33;;;27.50;42.60;;;;;;4907529;29;20617;-71
2021/09/20 06:39:10;;;;;;;27.77;9.90;;;27.50;42.40;;;;;;4900307;29;20193;-72
2021/09/20 06:41:37;;;;;;;503.37;201.80;;;27.50;42.50;;;;;;4898035;29;20197;-72
2021/09/20 06:44:05;;;;;;;719.70;292.47;;;26.90;42.90;;;;;;4907911;29;20549;-78
2021/09/20 06:46:35;;;;;;;719.13;288.97;;;26.90;43.00;;;;;;4903166;29;20190;-70
2021/09/20 06:49:04;;;;;;;128.20;43.93;;;27.20;43.30;;;;;;4897644;29;20656;-75
2021/09/20 06:51:32;;;;;;;720.13;296.60;;;27.20;43.20;;;;;;4897681;29;20204;-67
2021/09/20 06:53:59;;;;;;;521.87;212.77;;;27.50;43.30;;;;;;4897496;29;20213;-72
2021/09/20 06:56:26;;;;;;;499.97;198.20;;;27.40;43.00;;;;;;4912243;29;20213;-71
2021/09/20 06:58:54;;;;;;;501.27;200.03;;;27.20;43.10;;;;;;4903067;29;20180;-70
2021/09/20 07:01:21;;;;;;;503.23;200.03;;;27.00;43.50;;;;;;4901401;29;20193;-74
2021/09/20 07:03:49;;;;;;;26.37;10.07;;;26.80;43.80;;;;;;4897640;29;20272;-74
2021/09/20 07:06:16;;;;;;;499.30;190.53;;;26.50;44.00;;;;;;4898231;29;20625;-71
2021/09/20 07:08:43;;;;;;;337.80;133.93;;;26.10;44.50;;;;;;4897920;29;20280;-69
2021/09/20 07:11:11;;;;;;;709.93;282.30;;;26.10;44.80;;;;;;4898288;29;20260;-71
2021/09/20 07:13:38;;;;;;;125.83;43.23;;;25.90;44.80;;;;;;4896151;29;20189;-75
2021/09/20 07:16:05;;;;;;;330.87;127.70;;;25.80;45.10;;;;;;4897806;29;20224;-72
2021/09/20 07:18:33;;;;;;;488.67;189.27;;;25.90;45.30;;;;;;4898932;29;20260;-76
2021/09/20 07:21:00;;;;;;;7.33;6.70;;;25.60;45.40;;;;;;4899154;29;20268;-67
2021/09/20 07:23:28;;;;;;;499.47;194.90;;;25.30;46.00;;;;;;4895738;29;20193;-71
2021/09/20 07:25:55;;;;;;;26.93;14.50;;;24.90;46.50;;;;;;4898296;29;20558;-68
2021/09/20 07:28:23;;;;;;;8.97;8.17;;;24.70;46.70;;;;;;4896857;29;20281;-73
2021/09/20 07:30:50;;;;;;;490.20;183.67;;;24.40;47.10;;;;;;4897392;29;20258;-79
2021/09/20 07:33:17;;;;;;;15.40;6.57;;;24.30;47.30;;;;;;4898840;29;20244;-75
2021/09/20 07:35:45;;;;;;;329.07;124.80;;;24.20;47.60;;;;;;4901963;29;20217;-70
2021/09/20 07:38:13;;;;;;;472.93;180.63;;;24.10;47.80;;;;;;4896788;29;20257;-79
2021/09/20 07:40:40;;;;;;;487.17;182.17;;;24.00;48.00;;;;;;4905237;29;20604;-74
2021/09/20 07:43:08;;;;;;;7.57;5.70;;;23.90;48.00;;;;;;4898310;29;20420;-67
2021/09/20 07:45:35;;;;;;;461.50;168.37;;;23.80;48.30;;;;;;4904355;29;20220;-68
2021/09/20 07:48:03;;;;;;;473.60;176.17;;;23.80;48.50;;;;;;4899447;29;20197;-66
2021/09/20 07:50:30;;;;;;;464.93;176.00;;;23.70;48.70;;;;;;4897330;29;20291;-81
2021/09/20 07:52:57;;;;;;;8.80;7.50;;;23.70;48.80;;;;;;4898295;29;20483;-69
2021/09/20 07:55:25;;;;;;;458.93;172.30;;;23.70;48.80;;;;;;4904562;29;20617;-80
2021/09/20 07:57:53;;;;;;;470.70;178.60;;;23.70;49.00;;;;;;4904494;29;20503;-78
2021/09/20 08:00:21;;;;;;;7.33;5.67;;;23.60;49.20;;;;;;4904414;29;20185;-80
2021/09/20 08:02:48;;;;;;;10.70;6.63;;;23.60;49.70;;;;;;4904251;29;20598;-76
2021/09/20 08:05:15;;;;;;;482.17;180.40;;;23.60;49.70;;;;;;4902027;29;20644;-76
2021/09/20 08:07:43;;;;;;;60.37;19.20;;;23.50;49.60;;;;;;4896896;29;20645;-79
2021/09/20 08:10:10;;;;;;;463.97;173.33;;;23.50;49.50;;;;;;4899572;29;20240;-80
2021/09/20 08:12:38;;;;;;;9.97;5.23;;;23.50;49.70;;;;;;4906868;29;20432;-79
2021/09/20 08:15:06;;;;;;;20.23;10.97;;;23.50;49.70;;;;;;4897520;29;20189;-80
2021/09/20 08:17:33;;;;;;;10.80;7.10;;;23.50;49.90;;;;;;4894531;29;20220;-77
2021/09/20 08:20:06;;;;;;;9.60;4.77;;;23.40;49.90;;;;;;4897778;29;20184;-68
2021/09/20 08:22:34;;;;;;;483.27;174.60;;;23.40;50.20;;;;;;4906353;29;20206;-77
2021/09/20 08:25:02;;;;;;;489.00;181.73;;;22.90;53.50;;;;;;4910767;29;21070;-67
2021/09/20 08:27:30;;;;;;;463.03;167.40;;;22.10;58.10;;;;;;4900852;29;20919;-69
2021/09/20 08:29:57;;;;;;;484.50;173.03;;;21.60;61.10;;;;;;4900781;29;21350;-74
2021/09/20 08:32:25;;;;;;;18.23;11.70;;;21.10;63.10;;;;;;4902779;29;20606;-71
2021/09/20 08:34:52;;;;;;;14.17;6.20;;;20.90;64.30;;;;;;4911254;29;20189;-68
2021/09/20 08:37:20;;;;;;;38.60;11.87;;;20.50;65.80;;;;;;4913155;29;20284;-69
2021/09/20 08:39:48;;;;;;;14.00;6.93;;;20.50;66.40;;;;;;4904045;29;20188;-67
2021/09/20 08:42:16;;;;;;;244.77;83.53;;;20.30;66.80;;;;;;4901043;29;20249;-74
2021/09/20 08:44:43;;;;;;;444.37;157.00;;;20.10;67.00;;;;;;4900925;29;20804;-74
2021/09/20 08:47:14;;;;;;;12.20;7.87;;;20.00;67.50;;;;;;4910128;29;20439;-67
2021/09/20 08:49:42;;;;;;;15.07;10.80;;;19.70;67.80;;;;;;4915858;29;20553;-65
2021/09/20 08:52:09;;;;;;;15.57;9.27;;;19.40;69.10;;;;;;4907494;29;20181;-72
2021/09/20 08:54:37;;;;;;;13.57;7.47;;;19.20;69.90;;;;;;4899462;29;20643;-65
2021/09/20 08:57:05;;;;;;;18.83;8.67;;;19.00;70.70;;;;;;4900265;29;20715;-66
2021/09/20 08:59:32;;;;;;;17.30;8.20;;;18.50;71.60;;;;;;4909814;29;20548;-65
2021/09/20 09:02:01;;;;;;;13.57;5.77;;;17.60;73.60;;;;;;4900938;29;20189;-67
2021/09/20 09:04:34;;;;;;;18.77;7.07;;;17.10;74.80;;;;;;4910494;29;20590;-70
2021/09/20 09:07:08;;;;;;;15.60;6.77;;;16.80;75.60;;;;;;4903507;29;20484;-66
2021/09/20 09:09:38;;;;;;;16.70;8.70;;;16.50;75.90;;;;;;4905030;29;20772;-68
2021/09/20 09:12:09;;;;;;;17.20;9.23;;;16.40;76.30;;;;;;4900016;29;20989;-66
2021/09/20 09:14:53;;;;;;;16.03;7.83;;;16.20;76.10;;;;;;4900653;29;20796;-66
2021/09/20 09:17:32;;;;;;;15.90;7.03;;;16.10;76.50;;;;;;4899599;29;20567;-68
2021/09/20 09:20:02;;;;;;;20.20;7.30;;;16.00;76.00;;;;;;4909980;29;20432;-66
2021/09/20 09:22:43;;;;;;;14.83;5.90;;;16.00;76.00;;;;;;4908347;29;20443;-66
2021/09/20 09:25:19;;;;;;;14.97;6.20;;;16.00;75.50;;;;;;4912524;29;20557;-73
2021/09/20 09:27:49;;;;;;;16.63;9.50;;;15.90;74.70;;;;;;4900848;29;20424;-71
2021/09/20 09:30:19;;;;;;;14.60;5.70;;;15.90;74.30;;;;;;4900090;29;20417;-69
2021/09/20 09:32:48;;;;;;;14.37;5.53;;;15.60;74.40;;;;;;4899601;29;20425;-67
2021/09/20 09:35:17;;;;;;;15.77;6.50;;;15.40;74.00;;;;;;4899789;29;20443;-67
2021/09/20 09:37:47;;;;;;;15.90;7.70;;;15.30;73.40;;;;;;4899365;29;20472;-70
2021/09/20 09:40:21;;;;;;;17.13;9.43;;;15.20;73.30;;;;;;4899330;29;20945;-70
2021/09/20 09:42:51;;;;;;;17.20;8.23;;;15.10;72.80;;;;;;4892979;29;20458;-74
2021/09/20 09:45:26;;;;;;;15.30;6.10;;;15.10;72.50;;;;;;4910107;29;20454;-74
2021/09/20 09:48:08;;;;;;;17.07;8.27;;;15.00;72.30;;;;;;4901892;29;20831;-73
2021/09/20 09:50:43;;;;;;;18.17;10.57;;;14.90;72.50;;;;;;4900525;29;20827;-63
2021/09/20 09:53:33;;;;;;;23.20;12.70;;;14.70;73.30;;;;;;4901000;29;20434;-69
2021/09/20 09:56:22;;;;;;;17.10;10.63;;;14.70;73.90;;;;;;4903613;29;20475;-64
2021/09/20 09:59:05;;;;;;;15.83;9.57;;;14.60;74.10;;;;;;4901702;29;20436;-70
2021/09/20 10:01:36;;;;;;;16.20;9.63;;;14.60;74.50;;;;;;4906955;29;20434;-70
2021/09/20 10:04:23;;;;;;;15.30;8.20;;;14.60;74.30;;;;;;4900651;29;20428;-69
2021/09/20 10:06:54;;;;;;;23.57;9.87;;;14.60;73.80;;;;;;4900563;29;20423;-72
2021/09/20 10:09:25;;;;;;;20.40;6.90;;;14.60;73.80;;;;;;4898979;29;20459;-71
2021/09/20 10:11:55;;;;;;;16.73;10.93;;;14.50;73.80;;;;;;4905414;29;20555;-73
2021/09/20 10:14:23;;;;;;;15.03;8.17;;;14.50;73.70;;;;;;4900169;29;20475;-65
2021/09/20 10:16:53;;;;;;;15.57;8.60;;;14.50;73.50;;;;;;4899624;29;21082;-71
2021/09/20 10:19:21;;;;;;;14.37;7.17;;;14.50;72.90;;;;;;4905242;29;20486;-67
2021/09/20 10:21:50;;;;;;;19.13;10.83;;;14.50;73.10;;;;;;4898367;29;20998;-76
2021/09/20 10:24:18;;;;;;;14.77;8.07;;;14.40;73.10;;;;;;4904547;29;20451;-69
2021/09/20 10:26:46;;;;;;;15.77;7.73;;;14.50;73.00;;;;;;4902422;29;20544;-66
2021/09/20 10:29:18;;;;;;;14.67;7.63;;;14.40;73.10;;;;;;4898837;29;20435;-67
2021/09/20 10:31:49;;;;;;;16.47;11.23;;;14.30;73.40;;;;;;4909714;29;20443;-75
2021/09/20 10:34:24;;;;;;;14.97;7.53;;;14.30;73.70;;;;;;4909264;29;20471;-69
2021/09/20 10:37:06;;;;;;;15.87;8.30;;;14.30;73.40;;;;;;4899040;29;20471;-76
2021/09/20 10:40:06;;;;;;;22.90;10.73;;;14.30;72.90;;;;;;4905493;29;20454;-78
2021/09/20 10:42:48;;;;;;;14.23;7.27;;;14.30;73.10;;;;;;4903314;29;20430;-75
2021/09/20 10:45:40;;;;;;;15.63;8.53;;;14.30;73.40;;;;;;4902090;29;20450;-75
2021/09/20 10:48:33;;;;;;;17.27;11.80;;;14.30;73.30;;;;;;4891323;29;20486;-69
2021/09/20 10:51:21;;;;;;;15.40;8.20;;;14.30;73.60;;;;;;4901544;29;20436;-66
2021/09/20 10:54:09;;;;;;;17.23;12.13;;;14.30;74.00;;;;;;4906169;29;20451;-80
2021/09/20 10:56:36;;;;;;;14.70;7.43;;;14.30;74.10;;;;;;4903373;29;20546;-69
2021/09/20 10:59:08;;;;;;;19.70;8.53;;;14.10;77.60;;;;;;4898923;29;20443;-79
2021/09/20 11:01:39;;;;;;;19.87;8.30;;;13.80;79.10;;;;;;4902960;29;21266;-69
2021/09/20 11:04:15;;;;;;;14.87;7.43;;;13.40;82.40;;;;;;4897268;29;20472;-72
2021/09/20 11:06:52;;;;;;;14.73;7.43;;;13.30;80.90;;;;;;4896323;29;20950;-78
2021/09/20 11:09:22;;;;;;;15.70;9.40;;;13.40;82.60;;;;;;4896739;29;20435;-71
2021/09/20 11:12:03;;;;;;;17.10;9.77;;;13.30;83.10;;;;;;4896489;29;20837;-68
2021/09/20 11:14:44;;;;;;;15.57;9.83;;;13.30;80.60;;;;;;4896630;29;20444;-71
2021/09/20 11:17:41;;;;;;;24.87;10.00;;;13.20;82.30;;;;;;4896666;29;20479;-75
2021/09/20 11:20:36;;;;;;;14.77;7.00;;;13.20;82.80;;;;;;4897544;29;20416;-77
2021/09/20 11:23:25;;;;;;;15.90;9.77;;;13.30;82.60;;;;;;4895723;29;20444;-80
2021/09/20 11:26:10;;;;;;;16.37;10.30;;;13.30;81.10;;;;;;4885676;29;20436;-79
2021/09/20 11:28:42;;;;;;;15.13;8.43;;;13.50;82.30;;;;;;4893762;29;20523;-67
2021/09/20 11:31:10;;;;;;;17.57;9.23;;;13.40;82.40;;;;;;4887908;29;20428;-77
2021/09/20 11:33:45;;;;;;;15.63;9.20;;;13.40;81.60;;;;;;4895548;29;20436;-68
2021/09/20 11:36:18;;;;;;;14.40;7.13;;;13.30;82.50;;;;;;4897582;29;20926;-69
2021/09/20 11:38:47;;;;;;;15.60;9.87;;;13.40;81.70;;;;;;4896437;29;20439;-71
2021/09/20 11:41:20;;;;;;;14.43;7.17;;;13.40;82.30;;;;;;4896534;29;20846;-80
2021/09/20 11:43:47;;;;;;;15.63;9.73;;;13.20;85.10;;;;;;4893804;29;21065;-72
2021/09/20 11:46:19;;;;;;;14.23;7.07;;;13.00;85.70;;;;;;4897105;29;20432;-77
2021/09/20 11:48:47;;;;;;;14.30;7.20;;;12.90;86.10;;;;;;4899386;29;20427;-68
2021/09/20 11:51:14;;;;;;;14.47;7.30;;;13.00;86.20;;;;;;4902642;29;20431;-75
2021/09/20 11:53:41;;;;;;;17.00;12.30;;;13.10;85.30;;;;;;4903108;29;20451;-75
2021/09/20 11:56:09;;;;;;;14.40;7.23;;;13.20;85.90;;;;;;4900093;29;20517;-70
2021/09/20 11:58:36;;;;;;;15.37;7.63;;;13.30;84.90;;;;;;4898991;29;20435;-72
2021/09/20 12:01:03;;;;;;;14.77;7.73;;;13.30;83.70;;;;;;4899419;29;20530;-74
2021/09/20 12:03:30;;;;;;;15.73;10.00;;;13.40;85.30;;;;;;4900376;29;20875;-67
2021/09/20 12:06:00;;;;;;;14.17;7.10;;;13.50;85.50;;;;;;4903528;29;20442;-72
2021/09/20 12:08:28;;;;;;;14.37;7.57;;;13.50;84.20;;;;;;4907682;29;20771;-76
2021/09/20 12:10:57;;;;;;;15.13;9.50;;;13.50;84.30;;;;;;4901481;29;21024;-70
2021/09/20 12:13:28;;;;;;;14.73;8.97;;;13.50;84.00;;;;;;4901726;29;20416;-72
2021/09/20 12:16:03;;;;;;;16.17;10.37;;;13.60;83.10;;;;;;4898655;29;20459;-74
2021/09/20 12:18:31;;;;;;;14.60;9.77;;;13.70;82.90;;;;;;4896594;29;20427;-74
2021/09/20 12:21:07;;;;;;;14.27;8.13;;;13.60;82.80;;;;;;4904570;29;20942;-83
2021/09/20 12:23:46;;;;;;;14.30;8.73;;;13.60;81.60;;;;;;4896837;29;20470;-67
2021/09/20 12:26:16;;;;;;;14.67;10.07;;;13.70;82.70;;;;;;4892782;29;20434;-79
2021/09/20 12:28:58;;;;;;;15.50;10.87;;;13.70;82.00;;;;;;4901686;29;20424;-79
2021/09/20 12:31:30;;;;;;;15.33;11.53;;;13.70;81.10;;;;;;4920954;29;20757;-78